createdAt,value
2023-02-02T00:04:26.181Z,2.77
2023-02-02T00:09:32.483Z,2.78
2023-02-02T00:14:34.675Z,2.78
2023-02-02T00:19:36.875Z,2.78
2023-02-02T00:24:38.927Z,2.76
2023-02-02T00:29:41.144Z,2.74
2023-02-02T00:34:43.548Z,2.70
2023-02-02T00:39:45.637Z,2.69
2023-02-02T00:45:06.423Z,2.68
2023-02-02T00:50:11.531Z,2.67
2023-02-02T00:55:15.355Z,2.65
2023-02-02T01:00:23.204Z,2.62
2023-02-02T01:05:25.565Z,2.53
2023-02-02T01:10:28.056Z,2.38
2023-02-02T01:15:30.341Z,2.24
2023-02-02T01:20:32.262Z,2.11
2023-02-02T01:25:38.148Z,1.96
2023-02-02T01:30:40.086Z,1.82
2023-02-02T01:35:53.125Z,1.72
2023-02-02T01:40:56.732Z,1.61
2023-02-02T01:45:58.931Z,1.55
2023-02-02T01:51:06.628Z,1.52
2023-02-02T01:56:11.806Z,1.52
2023-02-02T02:01:14.760Z,1.55
2023-02-02T02:06:19.202Z,1.59
2023-02-02T02:11:22.258Z,1.63
2023-02-02T02:16:59.807Z,1.70
2023-02-02T02:22:32.218Z,1.77
2023-02-02T02:27:56.147Z,1.83
2023-02-02T02:33:07.749Z,1.89
2023-02-02T02:38:15.090Z,1.93
2023-02-02T02:43:29.066Z,1.97
2023-02-02T02:48:31.111Z,2.02
2023-02-02T02:53:34.562Z,2.08
2023-02-02T02:58:59.349Z,2.14
2023-02-02T03:04:09.806Z,2.21
2023-02-02T03:09:21.022Z,2.27
2023-02-02T03:14:22.995Z,2.35
2023-02-02T03:19:24.963Z,2.41
2023-02-02T03:24:26.907Z,2.48
2023-02-02T03:29:29.338Z,2.55
2023-02-02T03:34:31.247Z,2.61
2023-02-02T03:39:33.070Z,2.65
2023-02-02T03:44:35.536Z,2.67
2023-02-02T03:49:37.383Z,2.70
2023-02-02T03:54:39.351Z,2.70
2023-02-02T03:59:41.287Z,2.70
2023-02-02T04:04:43.245Z,2.70
2023-02-02T04:09:45.320Z,2.71
2023-02-02T04:14:47.269Z,2.71
2023-02-02T04:19:49.265Z,2.72
2023-02-02T04:24:51.206Z,2.73
2023-02-02T04:29:53.477Z,2.73
2023-02-02T04:34:55.382Z,2.73
2023-02-02T04:39:57.341Z,2.73
2023-02-02T04:44:59.269Z,2.75
2023-02-02T04:50:01.176Z,2.74
2023-02-02T04:55:03.323Z,2.74
2023-02-02T05:00:06.349Z,2.73
2023-02-02T05:05:11.741Z,2.72
2023-02-02T05:10:13.725Z,2.71
2023-02-02T05:15:16.136Z,2.67
2023-02-02T05:20:18.331Z,2.64
2023-02-02T05:25:20.264Z,2.62
2023-02-02T05:30:22.281Z,2.61
2023-02-02T05:35:24.597Z,2.60
2023-02-02T05:40:26.782Z,2.60
2023-02-02T05:45:28.843Z,2.61
2023-02-02T05:50:30.778Z,2.60
2023-02-02T05:55:33.081Z,2.55
2023-02-02T06:00:35.045Z,2.44
2023-02-02T06:05:37.322Z,2.33
2023-02-02T06:10:41.084Z,2.29
2023-02-02T06:15:43.691Z,2.29
2023-02-02T06:20:46.851Z,2.30
2023-02-02T06:25:48.775Z,2.35
2023-02-02T06:30:50.741Z,2.42
2023-02-02T06:35:53.558Z,2.49
2023-02-02T06:41:01.859Z,2.56
2023-02-02T06:46:04.109Z,2.62
2023-02-02T06:51:07.216Z,2.67
2023-02-02T06:56:12.781Z,2.73
2023-02-02T07:01:15.689Z,2.78
2023-02-02T07:06:24.104Z,2.83
2023-02-02T07:11:26.901Z,2.87
2023-02-02T07:16:29.167Z,2.90
2023-02-02T07:21:35.802Z,2.98
2023-02-02T07:26:39.411Z,3.09
2023-02-02T07:31:42.182Z,3.14
2023-02-02T07:36:44.465Z,3.14
2023-02-02T07:41:46.738Z,3.15
2023-02-02T07:46:48.974Z,3.23
2023-02-02T07:51:51.078Z,3.39
2023-02-02T07:56:53.126Z,3.49
2023-02-02T08:01:55.181Z,3.50
2023-02-02T08:06:58.214Z,3.47
2023-02-02T08:12:02.027Z,3.42
2023-02-02T08:17:04.247Z,3.40
2023-02-02T08:22:06.487Z,3.51
2023-02-02T08:27:10.331Z,3.73
2023-02-02T08:32:12.511Z,3.93
2023-02-02T08:37:15.483Z,4.07
2023-02-02T08:42:17.551Z,4.08
2023-02-02T08:47:19.545Z,3.95
2023-02-02T08:52:21.690Z,3.79
2023-02-02T08:57:24.046Z,3.64
2023-02-02T09:02:26.385Z,3.54
2023-02-02T09:07:29.560Z,3.47
2023-02-02T09:12:31.983Z,3.38
2023-02-02T09:17:35.080Z,3.27
2023-02-02T09:22:37.190Z,3.21
2023-02-02T09:27:41.156Z,3.23
2023-02-02T09:32:45.505Z,3.34
2023-02-02T09:37:47.662Z,3.46
2023-02-02T09:42:56.671Z,3.49
2023-02-02T09:48:20.028Z,3.42
2023-02-02T09:53:55.068Z,3.40
2023-02-02T09:59:18.725Z,3.52
2023-02-02T10:04:36.331Z,3.68
2023-02-02T10:10:13.020Z,3.91
2023-02-02T10:15:37.518Z,4.07
2023-02-02T10:20:57.596Z,4.19
2023-02-02T10:26:28.622Z,4.31
2023-02-02T10:31:34.381Z,4.53
2023-02-02T10:36:55.448Z,4.76
2023-02-02T10:42:19.028Z,4.86
2023-02-02T10:47:34.653Z,4.73
2023-02-02T10:52:39.521Z,4.69
2023-02-02T10:58:03.172Z,4.80
2023-02-02T11:03:07.991Z,4.82
2023-02-02T11:08:24.923Z,4.76
2023-02-02T11:13:34.539Z,4.78
2023-02-02T11:18:36.574Z,4.92
2023-02-02T11:23:38.621Z,5.02
2023-02-02T11:28:40.597Z,4.98
2023-02-02T11:33:42.703Z,4.88
2023-02-02T11:38:44.802Z,4.72
2023-02-02T11:43:53.274Z,4.55
2023-02-02T11:49:18.708Z,4.37
2023-02-02T11:54:29.029Z,4.29
2023-02-02T11:59:39.829Z,4.27
2023-02-02T12:04:41.850Z,4.24
2023-02-02T12:09:44.085Z,4.23
2023-02-02T12:14:49.491Z,4.13
2023-02-02T12:19:57.805Z,4.08
2023-02-02T12:25:09.009Z,4.03
2023-02-02T12:30:37.442Z,3.98
2023-02-02T12:35:57.383Z,3.92
2023-02-02T12:41:29.886Z,3.92
2023-02-02T12:46:49.932Z,3.95
2023-02-02T12:52:16.804Z,3.95
2023-02-02T12:57:41.408Z,3.94
2023-02-02T13:03:14.279Z,3.95
2023-02-02T13:08:33.159Z,3.87
2023-02-02T13:13:38.635Z,3.80
2023-02-02T13:18:59.555Z,3.78
2023-02-02T13:24:05.928Z,3.63
2023-02-02T13:29:19.307Z,3.39
2023-02-02T13:34:49.374Z,3.40
2023-02-02T13:40:25.579Z,3.58
2023-02-02T13:45:59.111Z,3.62
2023-02-02T13:51:31.933Z,3.69
2023-02-02T14:02:38.760Z,3.69
2023-02-02T14:07:47.011Z,3.64
2023-02-02T14:12:49.884Z,3.29
2023-02-02T14:17:55.740Z,2.95
2023-02-02T14:22:57.860Z,2.69
2023-02-02T14:28:12.111Z,2.45
2023-02-02T14:33:22.195Z,2.29
2023-02-02T14:39:01.140Z,2.23
2023-02-02T14:44:06.606Z,2.20
2023-02-02T14:49:44.585Z,2.21
2023-02-02T14:54:58.440Z,2.23
2023-02-02T15:00:11.263Z,2.21
2023-02-02T15:05:40.774Z,2.17
2023-02-02T15:11:07.325Z,2.13
2023-02-02T15:16:31.414Z,2.10
2023-02-02T15:21:42.956Z,2.08
2023-02-02T15:26:56.363Z,2.08
2023-02-02T15:32:23.832Z,2.07
2023-02-02T15:37:45.918Z,2.07
2023-02-02T15:43:00.124Z,1.97
2023-02-02T15:48:34.542Z,1.83
2023-02-02T15:53:44.045Z,1.75
2023-02-02T15:58:53.238Z,1.65
2023-02-02T16:04:24.825Z,1.58
2023-02-02T16:09:43.980Z,1.52
2023-02-02T16:15:08.617Z,1.47
2023-02-02T16:20:18.791Z,1.47
2023-02-02T16:25:36.896Z,1.47
2023-02-02T16:30:53.151Z,1.41
2023-02-02T16:36:30.742Z,1.36
2023-02-02T16:41:44.773Z,1.37
2023-02-02T16:47:00.974Z,1.39
2023-02-02T16:52:28.985Z,1.40
2023-02-02T16:57:47.511Z,1.43
2023-02-02T17:03:10.036Z,1.39
2023-02-02T17:08:28.587Z,1.30
2023-02-02T17:13:31.090Z,1.22
2023-02-02T17:18:33.790Z,1.16
2023-02-02T17:23:36.633Z,1.08
2023-02-02T17:28:40.434Z,0.99
2023-02-02T17:33:46.009Z,0.92
2023-02-02T17:38:48.545Z,0.85
2023-02-02T17:43:51.956Z,0.74
2023-02-02T17:48:54.590Z,0.64
2023-02-02T17:54:00.092Z,0.57
2023-02-02T17:59:02.407Z,0.52
2023-02-02T18:04:05.821Z,0.49
2023-02-02T18:09:09.957Z,0.47
2023-02-02T18:14:12.277Z,0.43
2023-02-02T18:19:14.349Z,0.38
2023-02-02T18:24:16.475Z,0.38
2023-02-02T18:29:18.509Z,0.41
2023-02-02T18:34:21.129Z,0.51
2023-02-02T18:39:23.563Z,0.63
2023-02-02T18:44:26.421Z,0.72
2023-02-02T18:49:30.927Z,0.76
2023-02-02T18:54:35.349Z,0.78
2023-02-02T18:59:37.414Z,0.76
2023-02-02T19:05:01.080Z,0.74
2023-02-02T19:10:07.834Z,0.73
2023-02-02T19:15:13.828Z,0.68
2023-02-02T19:20:43.045Z,0.57
2023-02-02T19:25:51.543Z,0.54
2023-02-02T19:30:57.683Z,0.58
2023-02-02T19:36:05.836Z,0.61
2023-02-02T19:41:20.829Z,0.62
2023-02-02T19:46:26.143Z,0.61
2023-02-02T19:51:38.706Z,0.58
2023-02-02T19:56:40.784Z,0.57
2023-02-02T20:01:45.855Z,0.54
2023-02-02T20:06:58.553Z,0.51
2023-02-02T20:12:29.813Z,0.50
2023-02-02T20:17:35.683Z,0.52
2023-02-02T20:22:37.883Z,0.55
2023-02-02T20:27:39.926Z,0.59
2023-02-02T20:32:43.084Z,0.63
2023-02-02T20:37:45.759Z,0.63
2023-02-02T20:42:49.149Z,0.59
2023-02-02T20:47:51.423Z,0.51
2023-02-02T20:52:55.322Z,0.42
2023-02-02T20:57:59.391Z,0.36
2023-02-02T21:03:02.045Z,0.30
2023-02-02T21:08:08.890Z,0.16
2023-02-02T21:13:13.432Z,0.12
2023-02-02T21:18:15.471Z,0.13
2023-02-02T21:23:17.723Z,0.15
2023-02-02T21:28:20.829Z,0.15
2023-02-02T21:33:29.124Z,0.10
2023-02-02T21:38:34.316Z,-0.05
2023-02-02T21:43:40.099Z,-0.17
2023-02-02T21:48:48.073Z,-0.26
2023-02-02T21:53:51.642Z,-0.34
2023-02-02T21:58:58.919Z,-0.37
2023-02-02T22:04:01.002Z,-0.43
2023-02-02T22:09:07.442Z,-0.50
2023-02-02T22:14:14.715Z,-0.57
2023-02-02T22:19:27.189Z,-0.68
2023-02-02T22:24:29.310Z,-0.74
2023-02-02T22:29:35.008Z,-0.76
2023-02-02T22:34:37.623Z,-0.81
2023-02-02T22:39:42.420Z,-0.94
2023-02-02T22:44:45.029Z,-1.11
2023-02-02T22:49:47.650Z,-1.23
2023-02-02T22:54:49.937Z,-1.27
2023-02-02T22:59:51.979Z,-1.26
2023-02-02T23:04:53.919Z,-1.24
2023-02-02T23:09:55.855Z,-1.26
2023-02-02T23:14:58.476Z,-1.38
2023-02-02T23:20:05.195Z,-1.57
2023-02-02T23:25:09.050Z,-1.78
2023-02-02T23:30:13.373Z,-1.93
2023-02-02T23:35:15.890Z,-2.04
2023-02-02T23:40:18.510Z,-2.14
2023-02-02T23:45:20.676Z,-2.27
2023-02-02T23:50:22.901Z,-2.42
2023-02-02T23:55:25.109Z,-2.56
